Time;durP1;ratioP1;P1;durP2;ratioP2;P2;SDS_P1;SDS_P2;PMS_P1;PMS_P2;Temp;Humidity;BMP_temperature;BMP_pressure;BME280_temperature;BME280_humidity;BME280_pressure;Samples;Min_cycle;Max_cycle;Signal;HPM_P1;HPM_P2
2023/03/17 00:00:48;;;;;;;4.73;2.90;;;5.80;99.90;;;;;;5071279;28;20290;-79
2023/03/17 00:03:25;;;;;;;5.63;2.90;;;5.70;99.90;;;;;;5069686;28;20210;-79
2023/03/17 00:05:53;;;;;;;10.17;3.10;;;5.70;99.90;;;;;;5070222;28;20206;-78
2023/03/17 00:08:26;;;;;;;6.20;2.63;;;5.70;99.90;;;;;;5075120;28;20212;-78
2023/03/17 00:10:52;;;;;;;6.97;3.10;;;5.70;99.90;;;;;;5070838;28;20187;-79
2023/03/17 00:13:19;;;;;;;6.37;3.07;;;5.60;99.90;;;;;;5076205;28;20175;-77
2023/03/17 00:15:48;;;;;;;7.70;2.87;;;5.60;99.90;;;;;;5068096;28;20275;-79
2023/03/17 00:18:16;;;;;;;7.73;3.23;;;5.60;99.90;;;;;;5087097;28;20207;-79
2023/03/17 00:20:42;;;;;;;8.57;3.13;;;5.60;99.90;;;;;;5070109;28;20214;-78
2023/03/17 00:23:14;;;;;;;6.80;3.00;;;5.50;99.90;;;;;;5082973;28;20286;-78
2023/03/17 00:25:42;;;;;;;8.30;2.70;;;5.50;99.90;;;;;;5078598;28;20194;-79
2023/03/17 00:28:21;;;;;;;6.47;3.23;;;5.50;99.90;;;;;;5087708;28;20172;-79
2023/03/17 00:30:51;;;;;;;7.20;3.40;;;5.40;99.90;;;;;;5082185;28;20213;-78
2023/03/17 00:33:23;;;;;;;7.37;3.17;;;5.50;99.90;;;;;;5079550;28;20298;-80
2023/03/17 00:35:48;;;;;;;6.33;3.43;;;5.50;99.90;;;;;;5061901;28;20294;-79
2023/03/17 00:38:20;;;;;;;6.17;3.70;;;5.50;99.90;;;;;;5077034;28;20217;-79
2023/03/17 00:40:46;;;;;;;5.20;2.90;;;5.50;99.90;;;;;;5055632;28;20212;-79
2023/03/17 00:43:12;;;;;;;8.23;3.93;;;5.40;99.90;;;;;;5073294;28;20199;-77
2023/03/17 00:45:39;;;;;;;4.80;3.27;;;5.40;99.90;;;;;;5073579;28;20215;-79
2023/03/17 00:48:12;;;;;;;8.93;4.10;;;5.40;99.90;;;;;;5056600;28;20756;-78
2023/03/17 00:50:38;;;;;;;6.83;3.87;;;5.40;99.90;;;;;;5073054;28;20211;-79
2023/03/17 00:53:09;;;;;;;6.77;3.63;;;5.40;99.90;;;;;;5070800;28;20239;-78
2023/03/17 00:55:36;;;;;;;5.77;3.60;;;5.40;99.90;;;;;;5070396;28;20233;-80
2023/03/17 00:58:09;;;;;;;7.03;3.97;;;5.40;99.90;;;;;;5066851;28;20240;-78
2023/03/17 01:00:35;;;;;;;8.70;3.40;;;5.30;99.90;;;;;;5078425;28;20219;-79
2023/03/17 01:03:01;;;;;;;6.50;3.67;;;5.40;99.90;;;;;;5076502;28;20210;-78
2023/03/17 01:05:27;;;;;;;6.17;3.23;;;5.40;99.90;;;;;;5058759;28;20210;-79
2023/03/17 01:07:56;;;;;;;10.27;3.80;;;5.30;99.90;;;;;;5069900;28;20176;-78
2023/03/17 01:10:26;;;;;;;7.40;3.43;;;5.30;99.90;;;;;;5077366;28;20189;-80
2023/03/17 01:12:54;;;;;;;7.60;3.80;;;5.30;99.90;;;;;;5061046;28;20220;-79
2023/03/17 01:15:21;;;;;;;6.07;3.90;;;5.30;99.90;;;;;;5059400;28;20585;-78
2023/03/17 01:17:47;;;;;;;8.27;3.70;;;5.30;99.90;;;;;;5063085;28;20218;-80
2023/03/17 01:20:29;;;;;;;7.27;3.50;;;5.30;99.90;;;;;;5072654;28;21062;-77
2023/03/17 01:22:55;;;;;;;8.67;3.80;;;5.30;99.90;;;;;;5058199;28;20203;-78
2023/03/17 01:25:21;;;;;;;4.90;3.27;;;5.30;99.90;;;;;;5076822;28;20198;-79
2023/03/17 01:27:47;;;;;;;6.67;3.93;;;5.30;99.90;;;;;;5071746;28;20230;-79
2023/03/17 01:30:19;;;;;;;6.77;3.73;;;5.20;99.90;;;;;;5061076;28;20210;-78
2023/03/17 01:32:45;;;;;;;6.63;3.73;;;5.30;99.90;;;;;;5086440;28;20383;-79
2023/03/17 01:35:12;;;;;;;8.10;3.90;;;5.30;99.90;;;;;;5065390;28;20650;-79
2023/03/17 01:37:38;;;;;;;7.80;3.93;;;5.30;99.90;;;;;;5075317;28;20175;-79
2023/03/17 01:40:12;;;;;;;9.00;3.90;;;5.30;99.90;;;;;;5069861;28;20265;-79
2023/03/17 01:42:38;;;;;;;5.23;4.10;;;5.30;99.90;;;;;;5074789;28;20283;-78
2023/03/17 01:45:26;;;;;;;7.30;4.00;;;5.30;99.90;;;;;;5071298;28;20207;-76
2023/03/17 01:47:52;;;;;;;9.23;3.60;;;5.30;99.90;;;;;;5072171;28;20703;-79
2023/03/17 01:50:18;;;;;;;7.10;3.83;;;5.20;99.90;;;;;;5072838;28;20197;-79
2023/03/17 01:52:45;;;;;;;8.93;3.77;;;5.20;99.90;;;;;;5062275;28;20255;-76
2023/03/17 01:55:16;;;;;;;11.07;4.37;;;5.20;99.90;;;;;;5073635;28;20215;-79
2023/03/17 01:57:53;;;;;;;8.50;4.60;;;5.20;99.90;;;;;;5076097;28;20207;-78
2023/03/17 02:00:22;;;;;;;10.53;4.00;;;5.20;99.90;;;;;;5079048;28;20221;-80
2023/03/17 02:02:54;;;;;;;6.50;3.60;;;5.20;99.90;;;;;;5082411;28;20210;-79
2023/03/17 02:05:22;;;;;;;9.30;3.97;;;5.20;99.90;;;;;;5085597;28;20700;-80
2023/03/17 02:07:48;;;;;;;12.70;4.50;;;5.30;99.90;;;;;;5084471;28;20191;-78
2023/03/17 02:10:19;;;;;;;12.60;4.53;;;5.20;99.90;;;;;;5082452;28;20163;-79
2023/03/17 02:12:46;;;;;;;10.93;4.40;;;5.20;99.90;;;;;;5059915;28;20207;-80
2023/03/17 02:15:12;;;;;;;9.57;4.67;;;5.10;99.90;;;;;;5074424;28;20221;-79
2023/03/17 02:17:38;;;;;;;6.20;3.77;;;5.10;99.90;;;;;;5058694;28;20207;-79
2023/03/17 02:20:16;;;;;;;8.67;4.40;;;5.10;99.90;;;;;;5073191;28;20597;-79
2023/03/17 02:22:51;;;;;;;9.60;4.20;;;5.10;99.90;;;;;;5064754;28;20202;-79
2023/03/17 02:25:18;;;;;;;8.60;4.70;;;5.10;99.90;;;;;;5067800;28;20301;-79
2023/03/17 02:27:47;;;;;;;8.17;4.97;;;5.00;99.90;;;;;;5071292;28;20738;-79
2023/03/17 02:30:16;;;;;;;9.90;4.40;;;5.10;99.90;;;;;;5067209;28;20283;-78
2023/03/17 02:32:42;;;;;;;9.53;4.37;;;5.00;99.90;;;;;;5066417;28;20207;-78
2023/03/17 02:35:08;;;;;;;9.60;4.57;;;5.10;99.90;;;;;;5053538;28;20735;-79
2023/03/17 02:37:34;;;;;;;9.70;4.67;;;5.10;99.90;;;;;;5053833;28;20187;-78
2023/03/17 02:40:00;;;;;;;7.83;4.37;;;5.10;99.90;;;;;;5070181;28;20203;-78
2023/03/17 02:42:27;;;;;;;11.40;4.47;;;5.10;99.90;;;;;;5058640;28;20222;-78
2023/03/17 02:44:53;;;;;;;9.03;5.00;;;5.00;99.90;;;;;;5067027;28;20559;-79
2023/03/17 02:47:20;;;;;;;9.10;4.57;;;5.00;99.90;;;;;;5066903;28;20199;-79
2023/03/17 02:49:46;;;;;;;10.27;4.10;;;5.10;99.90;;;;;;5068265;28;20665;-79
2023/03/17 02:52:12;;;;;;;8.57;4.43;;;5.00;99.90;;;;;;5067128;28;20173;-79
2023/03/17 02:54:38;;;;;;;8.33;4.47;;;5.10;99.90;;;;;;5064677;28;20233;-78
2023/03/17 02:57:03;;;;;;;9.20;5.23;;;5.10;99.90;;;;;;5053593;28;20203;-78
2023/03/17 02:59:30;;;;;;;11.90;5.07;;;5.10;99.90;;;;;;5067773;28;20203;-78
2023/03/17 03:01:55;;;;;;;15.33;4.80;;;5.10;99.90;;;;;;5053271;28;20685;-79
2023/03/17 03:04:23;;;;;;;8.47;4.33;;;5.10;99.90;;;;;;5067952;28;20212;-78
2023/03/17 03:06:48;;;;;;;9.77;4.70;;;5.10;99.90;;;;;;5065518;28;20230;-79
2023/03/17 03:09:16;;;;;;;9.63;4.03;;;5.00;99.90;;;;;;5071090;28;20593;-79
2023/03/17 03:11:43;;;;;;;10.93;4.90;;;5.00;99.90;;;;;;5079142;28;20623;-79
2023/03/17 03:14:09;;;;;;;7.40;4.63;;;5.00;99.90;;;;;;5074642;28;20214;-78
2023/03/17 03:16:34;;;;;;;7.43;4.40;;;5.00;99.90;;;;;;5081603;28;20210;-80
2023/03/17 03:19:01;;;;;;;8.73;4.70;;;5.10;99.90;;;;;;5082476;28;20214;-77
2023/03/17 03:21:27;;;;;;;9.33;4.13;;;5.10;99.90;;;;;;5074436;28;20198;-79
2023/03/17 03:23:52;;;;;;;9.67;4.23;;;5.00;99.90;;;;;;5066411;28;20284;-78
2023/03/17 03:26:18;;;;;;;11.40;4.70;;;5.10;99.90;;;;;;5067301;28;20223;-77
2023/03/17 03:28:44;;;;;;;10.07;4.00;;;5.10;99.90;;;;;;5057449;28;20179;-78
2023/03/17 03:31:10;;;;;;;8.07;4.30;;;5.10;99.90;;;;;;5069163;28;20657;-79
2023/03/17 03:33:36;;;;;;;8.77;4.50;;;5.10;99.90;;;;;;5055213;28;20225;-80
2023/03/17 03:36:01;;;;;;;7.97;4.40;;;5.10;99.90;;;;;;5054332;28;20693;-79
2023/03/17 03:38:28;;;;;;;7.63;4.53;;;5.10;99.90;;;;;;5065773;28;20228;-79
2023/03/17 03:40:53;;;;;;;8.50;4.40;;;5.10;99.90;;;;;;5062096;28;20251;-80
2023/03/17 03:43:20;;;;;;;8.83;4.77;;;5.00;99.90;;;;;;5086588;28;20211;-79
2023/03/17 03:45:46;;;;;;;9.57;4.83;;;5.10;99.90;;;;;;5068062;28;20209;-81
2023/03/17 03:48:12;;;;;;;8.87;4.23;;;5.10;99.90;;;;;;5059276;28;20268;-78
2023/03/17 03:50:37;;;;;;;9.73;4.97;;;5.10;99.90;;;;;;5068497;28;20207;-79
2023/03/17 03:53:03;;;;;;;10.23;5.20;;;5.00;99.90;;;;;;5070103;28;20256;-79
2023/03/17 03:55:29;;;;;;;8.17;4.30;;;5.00;99.90;;;;;;5056191;28;20217;-80
2023/03/17 03:57:55;;;;;;;10.03;5.03;;;5.00;99.90;;;;;;5069563;28;20210;-80
2023/03/17 04:00:21;;;;;;;8.63;4.57;;;5.00;99.90;;;;;;5071463;28;20214;-80
2023/03/17 04:02:47;;;;;;;9.37;4.60;;;5.10;99.90;;;;;;5057341;28;20214;-80
2023/03/17 04:05:14;;;;;;;7.33;4.80;;;5.00;99.90;;;;;;5055001;28;20649;-80
2023/03/17 04:07:40;;;;;;;9.70;4.40;;;5.00;99.90;;;;;;5067971;28;20180;-81
2023/03/17 04:10:07;;;;;;;7.70;3.87;;;5.00;99.90;;;;;;5070662;28;20175;-80
2023/03/17 04:12:33;;;;;;;7.90;4.63;;;5.00;99.90;;;;;;5064715;28;20272;-79
2023/03/17 04:14:59;;;;;;;9.70;4.80;;;5.00;99.90;;;;;;5053332;28;20218;-77
2023/03/17 04:17:24;;;;;;;10.57;4.90;;;5.00;99.90;;;;;;5064240;28;20211;-78
2023/03/17 04:19:51;;;;;;;9.60;5.13;;;5.00;99.90;;;;;;5064737;28;20187;-79
2023/03/17 04:22:16;;;;;;;7.80;4.53;;;5.00;99.90;;;;;;5047634;28;20209;-78
2023/03/17 04:24:42;;;;;;;9.47;3.97;;;4.90;99.90;;;;;;5063635;28;20207;-79
2023/03/17 04:27:08;;;;;;;9.50;4.20;;;4.90;99.90;;;;;;5062410;28;20726;-78
2023/03/17 04:29:35;;;;;;;8.13;4.20;;;4.90;99.90;;;;;;5048639;28;20258;-78
2023/03/17 04:32:01;;;;;;;9.00;4.30;;;4.90;99.90;;;;;;5051738;28;20203;-79
2023/03/17 04:34:27;;;;;;;8.27;4.37;;;4.90;99.90;;;;;;5045499;28;20222;-78
2023/03/17 04:36:52;;;;;;;6.80;4.40;;;4.90;99.90;;;;;;5055567;28;20199;-80
2023/03/17 04:39:18;;;;;;;15.17;5.23;;;4.80;99.90;;;;;;5054284;28;20280;-78
2023/03/17 04:41:45;;;;;;;6.33;4.20;;;4.80;99.90;;;;;;5070038;28;20280;-78
2023/03/17 04:44:11;;;;;;;9.03;4.67;;;4.80;99.90;;;;;;5072397;28;20245;-79
2023/03/17 04:46:37;;;;;;;10.50;4.73;;;4.80;99.90;;;;;;5073440;28;20181;-80
2023/03/17 04:49:03;;;;;;;13.07;4.30;;;4.90;99.90;;;;;;5074259;28;20685;-78
2023/03/17 04:51:29;;;;;;;7.60;4.27;;;4.90;99.90;;;;;;5062537;28;20305;-79
2023/03/17 04:53:55;;;;;;;7.80;4.53;;;4.90;99.90;;;;;;5059712;28;20251;-79
2023/03/17 04:56:21;;;;;;;13.23;4.47;;;4.80;99.90;;;;;;5070787;28;20249;-79
2023/03/17 04:58:46;;;;;;;6.97;4.53;;;4.80;99.90;;;;;;5054083;28;20176;-79
2023/03/17 05:01:12;;;;;;;6.47;3.80;;;4.80;99.90;;;;;;5061188;28;20609;-79
2023/03/17 05:03:37;;;;;;;5.70;4.17;;;4.80;99.90;;;;;;5074894;28;20322;-78
2023/03/17 05:06:04;;;;;;;8.50;4.33;;;4.80;99.90;;;;;;5066394;28;20209;-78
2023/03/17 05:08:30;;;;;;;9.63;4.40;;;4.80;99.90;;;;;;5066291;28;20257;-79
2023/03/17 05:10:57;;;;;;;7.47;4.10;;;4.80;99.90;;;;;;5054827;28;20210;-79
2023/03/17 05:13:23;;;;;;;6.97;4.47;;;4.80;99.90;;;;;;5054238;28;20183;-79
2023/03/17 05:15:51;;;;;;;7.43;4.20;;;4.70;99.90;;;;;;5065836;28;20214;-79
2023/03/17 05:18:17;;;;;;;9.80;4.73;;;4.70;99.90;;;;;;5067970;28;20219;-79
2023/03/17 05:20:43;;;;;;;9.10;4.30;;;4.70;99.90;;;;;;5067671;28;20206;-78
2023/03/17 05:23:09;;;;;;;6.00;3.93;;;4.80;99.90;;;;;;5051919;28;20218;-77
2023/03/17 05:25:35;;;;;;;8.90;4.43;;;4.80;99.90;;;;;;5065042;28;20208;-78
2023/03/17 05:28:01;;;;;;;8.10;4.60;;;4.80;99.90;;;;;;5064274;28;20631;-79
2023/03/17 05:30:27;;;;;;;6.90;3.90;;;4.80;99.90;;;;;;5064669;28;20211;-78
2023/03/17 05:32:53;;;;;;;6.70;3.67;;;4.90;99.90;;;;;;5067492;28;20207;-79
2023/03/17 05:35:19;;;;;;;10.47;4.60;;;4.90;99.90;;;;;;5063711;28;20223;-78
2023/03/17 05:37:45;;;;;;;8.03;4.27;;;4.80;99.90;;;;;;5050237;28;20174;-78
2023/03/17 05:40:11;;;;;;;11.83;4.00;;;4.90;99.90;;;;;;5049836;28;20195;-79
2023/03/17 05:42:38;;;;;;;5.87;4.00;;;4.90;99.90;;;;;;5065477;28;20584;-79
2023/03/17 05:45:04;;;;;;;7.17;3.83;;;4.90;99.90;;;;;;5062499;28;20245;-78
2023/03/17 05:47:32;;;;;;;6.17;3.63;;;5.00;99.90;;;;;;5067806;28;20324;-78
2023/03/17 05:49:58;;;;;;;8.97;4.27;;;5.00;99.90;;;;;;5070185;28;20171;-76
2023/03/17 05:52:24;;;;;;;7.30;3.57;;;5.00;99.90;;;;;;5068631;28;20172;-79
2023/03/17 05:54:51;;;;;;;6.60;3.10;;;5.00;99.90;;;;;;5072264;28;20206;-77
2023/03/17 05:57:17;;;;;;;10.70;4.33;;;5.00;99.90;;;;;;5054953;28;20675;-78
2023/03/17 05:59:42;;;;;;;6.70;3.63;;;5.10;99.90;;;;;;5051861;28;20298;-78
2023/03/17 06:02:10;;;;;;;8.53;3.93;;;5.10;99.90;;;;;;5069150;28;20581;-78
2023/03/17 06:04:36;;;;;;;8.13;4.07;;;5.10;99.90;;;;;;5050866;28;20216;-78
2023/03/17 06:07:01;;;;;;;8.33;3.93;;;5.20;99.90;;;;;;5066649;28;20206;-79
2023/03/17 06:09:27;;;;;;;7.97;3.43;;;5.10;99.90;;;;;;5068745;28;20556;-79
2023/03/17 06:11:52;;;;;;;8.30;4.57;;;5.10;99.90;;;;;;5071888;28;20211;-80
2023/03/17 06:14:18;;;;;;;7.10;4.17;;;5.20;99.90;;;;;;5066821;28;20219;-78
2023/03/17 06:16:44;;;;;;;11.00;3.80;;;5.10;99.90;;;;;;5070738;28;20179;-78
2023/03/17 06:19:09;;;;;;;7.10;4.03;;;5.20;99.90;;;;;;5076117;28;20220;-78
2023/03/17 06:21:35;;;;;;;8.77;3.67;;;5.20;99.90;;;;;;5078703;28;20200;-79
2023/03/17 06:24:01;;;;;;;6.03;3.60;;;5.20;99.90;;;;;;5055327;28;20278;-78
2023/03/17 06:26:27;;;;;;;9.37;3.80;;;5.30;99.90;;;;;;5070071;28;20600;-80
2023/03/17 06:28:53;;;;;;;10.27;4.17;;;5.30;99.90;;;;;;5056151;28;20217;-79
2023/03/17 06:31:18;;;;;;;7.43;3.43;;;5.40;99.90;;;;;;5068747;28;20218;-78
2023/03/17 06:33:44;;;;;;;8.73;3.53;;;5.40;99.90;;;;;;5071826;28;20701;-78
2023/03/17 06:36:09;;;;;;;9.63;4.77;;;5.50;99.90;;;;;;5068200;28;20841;-77
2023/03/17 06:38:35;;;;;;;8.47;3.87;;;5.50;99.90;;;;;;5056550;28;20647;-78
2023/03/17 06:41:02;;;;;;;12.63;4.37;;;5.50;99.90;;;;;;5062446;28;20210;-79
2023/03/17 06:43:27;;;;;;;10.63;4.20;;;5.50;99.90;;;;;;5061161;28;20191;-77
2023/03/17 06:45:53;;;;;;;9.77;3.67;;;5.50;99.90;;;;;;5065296;28;20214;-79
2023/03/17 06:48:19;;;;;;;8.60;4.07;;;5.50;99.90;;;;;;5067493;28;20215;-79
2023/03/17 06:50:46;;;;;;;6.37;3.53;;;5.50;99.90;;;;;;5056343;28;20207;-80
2023/03/17 06:53:12;;;;;;;6.73;3.97;;;5.60;99.90;;;;;;5053382;28;20272;-78
2023/03/17 06:55:38;;;;;;;4.80;3.30;;;5.70;99.90;;;;;;5065680;28;20214;-77
2023/03/17 06:58:03;;;;;;;7.47;3.90;;;5.80;99.90;;;;;;5063227;28;20695;-77
2023/03/17 07:00:29;;;;;;;14.27;4.03;;;5.80;99.90;;;;;;5052321;28;20204;-78
2023/03/17 07:02:55;;;;;;;7.00;3.80;;;6.10;99.90;;;;;;5063137;28;20215;-78
2023/03/17 07:05:21;;;;;;;5.90;3.43;;;6.30;99.90;;;;;;5063495;28;20285;-79
2023/03/17 07:07:48;;;;;;;7.80;3.63;;;6.30;99.90;;;;;;5055370;28;20178;-78
2023/03/17 07:10:14;;;;;;;7.53;3.30;;;6.20;99.90;;;;;;5051055;28;20206;-77
2023/03/17 07:12:40;;;;;;;6.57;3.37;;;6.20;99.90;;;;;;5050326;28;20207;-78
2023/03/17 07:15:08;;;;;;;6.43;3.67;;;6.20;99.90;;;;;;5043342;28;20751;-78
2023/03/17 07:17:34;;;;;;;10.90;4.07;;;6.30;99.90;;;;;;5065791;28;20212;-78
2023/03/17 07:20:00;;;;;;;8.50;3.40;;;6.30;99.90;;;;;;5069479;28;20214;-77
2023/03/17 07:22:25;;;;;;;9.73;4.20;;;6.40;99.90;;;;;;5065378;28;20178;-79
2023/03/17 07:24:52;;;;;;;7.07;3.50;;;6.80;99.90;;;;;;5068063;28;20230;-79
2023/03/17 07:27:18;;;;;;;6.13;4.03;;;7.40;99.90;;;;;;5053708;28;20914;-77
2023/03/17 07:29:43;;;;;;;13.43;4.20;;;8.40;99.90;;;;;;5066532;28;20207;-79
2023/03/17 07:32:09;;;;;;;5.87;3.80;;;8.80;99.90;;;;;;5067509;28;20212;-79
2023/03/17 07:34:36;;;;;;;5.87;3.60;;;9.20;99.90;;;;;;5068404;28;20204;-79
2023/03/17 07:37:02;;;;;;;8.73;3.83;;;9.00;99.90;;;;;;5071837;28;20345;-79
2023/03/17 07:39:28;;;;;;;7.43;3.80;;;8.80;99.90;;;;;;5058122;28;20207;-79
2023/03/17 07:41:54;;;;;;;6.90;3.43;;;9.20;99.90;;;;;;5074480;28;20216;-79
2023/03/17 07:44:21;;;;;;;10.43;4.20;;;9.00;99.90;;;;;;5066409;28;20223;-79
2023/03/17 07:46:48;;;;;;;5.77;3.60;;;8.70;99.90;;;;;;5072935;28;20583;-78
2023/03/17 07:49:14;;;;;;;10.03;3.63;;;8.80;99.90;;;;;;5053453;28;20179;-78
2023/03/17 07:51:41;;;;;;;8.43;3.80;;;8.70;99.90;;;;;;5062567;28;20286;-77
2023/03/17 07:54:08;;;;;;;9.60;3.97;;;8.50;99.90;;;;;;5051931;28;20398;-78
2023/03/17 07:56:34;;;;;;;8.73;3.80;;;8.60;99.90;;;;;;5063429;28;20244;-77
2023/03/17 07:59:00;;;;;;;7.73;4.03;;;9.30;99.90;;;;;;5067173;28;20211;-77
2023/03/17 08:01:26;;;;;;;8.70;3.67;;;9.80;99.90;;;;;;5065433;28;20479;-79
2023/03/17 08:03:52;;;;;;;10.33;4.33;;;9.90;99.90;;;;;;5067524;28;20211;-79
2023/03/17 08:06:18;;;;;;;8.27;3.40;;;10.00;99.90;;;;;;5069609;28;20275;-80
2023/03/17 08:08:44;;;;;;;7.03;3.70;;;11.10;99.90;;;;;;5073234;28;20198;-78
2023/03/17 08:11:11;;;;;;;9.80;3.93;;;11.00;99.90;;;;;;5063064;28;20204;-79
2023/03/17 08:13:37;;;;;;;4.87;3.23;;;11.20;99.90;;;;;;5050653;28;20224;-78
2023/03/17 08:16:02;;;;;;;7.47;3.70;;;10.70;99.90;;;;;;5060747;28;20203;-79
2023/03/17 08:18:28;;;;;;;9.97;4.03;;;10.10;99.90;;;;;;5060574;28;20588;-79
2023/03/17 08:20:54;;;;;;;11.30;4.23;;;9.90;99.90;;;;;;5051566;28;20254;-79
2023/03/17 08:23:20;;;;;;;11.63;4.33;;;9.80;99.90;;;;;;5053277;28;20254;-77
2023/03/17 08:25:46;;;;;;;8.83;4.40;;;9.50;99.90;;;;;;5065579;28;20199;-79
2023/03/17 08:28:14;;;;;;;5.50;3.93;;;9.70;99.90;;;;;;5073474;23;20234;-75
2023/03/17 08:30:41;;;;;;;9.47;3.30;;;9.90;99.90;;;;;;5069391;28;20235;-75
2023/03/17 08:33:07;;;;;;;10.40;4.10;;;9.80;99.90;;;;;;5048963;28;20207;-77
2023/03/17 08:35:34;;;;;;;7.23;3.70;;;9.80;99.90;;;;;;5045135;28;20649;-77
2023/03/17 08:38:00;;;;;;;9.87;4.00;;;9.70;99.90;;;;;;5047125;28;20228;-77
2023/03/17 08:40:27;;;;;;;7.20;3.63;;;9.50;99.90;;;;;;5060981;28;20183;-76
2023/03/17 08:42:52;;;;;;;9.03;3.57;;;9.30;99.90;;;;;;5048442;28;20274;-77
2023/03/17 08:45:18;;;;;;;7.30;3.80;;;9.30;99.90;;;;;;5062118;28;20285;-77
2023/03/17 08:47:45;;;;;;;9.73;4.40;;;9.00;99.90;;;;;;5060957;28;20199;-76
2023/03/17 08:50:17;;;;;;;7.67;3.77;;;9.10;99.90;;;;;;5045051;28;20670;-77
2023/03/17 08:52:43;;;;;;;8.10;4.10;;;9.10;99.90;;;;;;5046881;28;20262;-76
2023/03/17 08:55:10;;;;;;;10.00;3.87;;;9.20;99.90;;;;;;5063951;28;20193;-76
2023/03/17 08:57:36;;;;;;;8.70;3.80;;;9.10;99.90;;;;;;5065960;28;20261;-76
2023/03/17 09:00:09;;;;;;;7.13;3.47;;;9.10;99.90;;;;;;5063494;28;20245;-76
2023/03/17 09:02:41;;;;;;;6.60;3.47;;;9.00;99.90;;;;;;5047948;28;20241;-75
2023/03/17 09:05:09;;;;;;;6.10;3.30;;;9.10;99.90;;;;;;5061575;28;20207;-75
2023/03/17 09:07:36;;;;;;;5.90;3.93;;;9.10;99.90;;;;;;5049163;28;20258;-76
2023/03/17 09:10:04;;;;;;;12.10;4.03;;;9.30;99.90;;;;;;5060894;28;20231;-76
2023/03/17 09:12:30;;;;;;;6.70;3.90;;;9.40;99.90;;;;;;5058028;28;20203;-76
2023/03/17 09:14:56;;;;;;;9.73;3.73;;;9.60;99.90;;;;;;5063350;28;20248;-76
2023/03/17 09:17:22;;;;;;;6.13;3.80;;;9.70;99.90;;;;;;5060807;28;20216;-74
2023/03/17 09:19:48;;;;;;;7.43;4.40;;;9.50;99.90;;;;;;5063664;28;20182;-76
2023/03/17 09:22:17;;;;;;;6.33;4.00;;;9.70;99.90;;;;;;5062574;28;20179;-76
2023/03/17 09:24:43;;;;;;;8.07;4.17;;;9.90;99.90;;;;;;5066239;28;20241;-76
2023/03/17 09:27:09;;;;;;;7.87;3.70;;;10.20;99.90;;;;;;5051254;28;20211;-75
2023/03/17 09:29:35;;;;;;;10.60;4.10;;;10.50;99.90;;;;;;5063315;28;20218;-75
2023/03/17 09:32:01;;;;;;;8.73;3.77;;;10.50;99.90;;;;;;5062202;28;20286;-75
2023/03/17 09:34:26;;;;;;;7.33;3.63;;;10.40;99.90;;;;;;5051375;28;20175;-76
2023/03/17 09:36:53;;;;;;;7.13;3.93;;;10.40;99.90;;;;;;5056270;28;20206;-75
2023/03/17 09:39:21;;;;;;;7.63;4.17;;;10.90;99.90;;;;;;5064062;28;20206;-76
2023/03/17 09:42:05;;;;;;;8.17;4.27;;;10.70;99.90;;;;;;5054336;28;20303;-76
2023/03/17 09:44:46;;;;;;;9.77;3.60;;;11.20;99.90;;;;;;5061444;28;20307;-76
2023/03/17 09:47:39;;;;;;;7.53;4.10;;;11.10;99.90;;;;;;5043222;28;20223;-74
2023/03/17 09:50:14;;;;;;;6.03;3.87;;;11.20;99.90;;;;;;5063876;28;20613;-76
2023/03/17 09:52:41;;;;;;;7.37;4.10;;;11.60;99.90;;;;;;5062028;28;20172;-76
2023/03/17 09:55:27;;;;;;;10.60;3.70;;;11.80;99.90;;;;;;5065791;28;20171;-76
2023/03/17 09:57:55;;;;;;;5.83;3.10;;;11.80;99.90;;;;;;5046488;28;20203;-77
2023/03/17 10:00:26;;;;;;;5.67;3.50;;;12.00;99.90;;;;;;5063416;28;20266;-76
2023/03/17 10:02:52;;;;;;;5.67;3.90;;;12.00;99.90;;;;;;5054492;28;20233;-76
2023/03/17 10:05:20;;;;;;;6.03;3.90;;;12.10;99.90;;;;;;5047628;28;20218;-77
2023/03/17 10:07:58;;;;;;;6.97;3.40;;;11.90;99.90;;;;;;5062683;28;20547;-76
2023/03/17 10:10:47;;;;;;;4.90;3.27;;;11.90;99.90;;;;;;5065099;28;20183;-73
2023/03/17 10:13:25;;;;;;;5.20;3.47;;;12.20;99.90;;;;;;5066254;28;20198;-77
2023/03/17 10:15:58;;;;;;;5.60;3.37;;;12.30;99.90;;;;;;5051735;28;20233;-76
2023/03/17 10:18:31;;;;;;;7.27;4.00;;;12.40;99.90;;;;;;5067585;28;20897;-76
2023/03/17 10:21:02;;;;;;;5.30;3.40;;;12.60;99.90;;;;;;5064501;28;20282;-77
2023/03/17 10:23:31;;;;;;;7.00;3.60;;;12.30;99.90;;;;;;5050483;28;20388;-75
2023/03/17 10:26:22;;;;;;;7.80;3.77;;;12.20;99.90;;;;;;5065088;28;20183;-77
2023/03/17 10:28:48;;;;;;;9.40;3.90;;;12.30;99.90;;;;;;5055706;28;20227;-77
2023/03/17 10:31:31;;;;;;;7.47;3.33;;;12.30;99.90;;;;;;5065210;28;20201;-77
2023/03/17 10:34:12;;;;;;;7.40;3.07;;;12.50;99.90;;;;;;5054460;28;20233;-76
2023/03/17 10:36:39;;;;;;;6.03;3.30;;;12.20;99.90;;;;;;5062629;28;20202;-77
2023/03/17 10:39:09;;;;;;;6.10;3.57;;;12.30;99.90;;;;;;5066547;28;20271;-77
2023/03/17 10:41:39;;;;;;;9.17;3.57;;;12.50;99.90;;;;;;5046620;28;20211;-76
2023/03/17 10:44:19;;;;;;;7.23;3.30;;;12.70;99.90;;;;;;5062618;28;20717;-77
2023/03/17 10:46:53;;;;;;;6.03;3.60;;;12.60;99.90;;;;;;5060882;28;20574;-74
2023/03/17 10:49:21;;;;;;;8.40;4.50;;;12.60;99.90;;;;;;5066210;28;20292;-78
2023/03/17 10:51:54;;;;;;;6.57;3.47;;;12.70;99.90;;;;;;5047011;28;20294;-77
2023/03/17 10:54:24;;;;;;;6.27;3.50;;;12.80;99.90;;;;;;5062230;28;20290;-78
2023/03/17 10:57:02;;;;;;;5.17;3.60;;;12.60;99.90;;;;;;5049122;28;20203;-76
2023/03/17 10:59:31;;;;;;;5.73;3.50;;;12.40;99.90;;;;;;5045884;28;20217;-76
2023/03/17 11:02:06;;;;;;;7.30;3.27;;;12.20;99.90;;;;;;5066481;28;20655;-76
2023/03/17 11:04:36;;;;;;;7.60;3.37;;;12.40;99.90;;;;;;5062621;28;20673;-76
2023/03/17 11:07:33;;;;;;;5.37;3.07;;;12.70;99.90;;;;;;5046833;28;20203;-75
2023/03/17 11:10:01;;;;;;;6.63;3.90;;;12.80;99.90;;;;;;5059911;28;20199;-75
2023/03/17 11:12:40;;;;;;;6.47;3.60;;;12.60;99.90;;;;;;5061798;28;20203;-76
2023/03/17 11:15:16;;;;;;;6.33;3.37;;;12.80;99.90;;;;;;5064593;28;20723;-76
2023/03/17 11:17:58;;;;;;;6.60;3.33;;;12.90;99.90;;;;;;5061295;28;20294;-74
2023/03/17 11:20:29;;;;;;;6.27;3.27;;;13.10;99.90;;;;;;5050678;28;20211;-76
2023/03/17 11:23:21;;;;;;;5.60;3.07;;;13.20;99.90;;;;;;5056637;28;20237;-75
2023/03/17 11:25:54;;;;;;;6.67;3.03;;;13.20;99.90;;;;;;5075152;28;20600;-75
2023/03/17 11:28:24;;;;;;;4.90;2.70;;;13.20;99.90;;;;;;5065057;28;20211;-76
2023/03/17 11:31:26;;;;;;;5.90;3.10;;;13.20;99.90;;;;;;5045425;28;20203;-75
2023/03/17 11:34:36;;;;;;;7.77;2.67;;;13.20;99.90;;;;;;5048168;28;20209;-77
2023/03/17 11:37:08;;;;;;;5.60;2.67;;;13.20;99.90;;;;;;5067927;28;20233;-76
2023/03/17 11:40:11;;;;;;;6.80;3.47;;;13.40;99.90;;;;;;5042316;28;20261;-77
2023/03/17 11:43:02;;;;;;;7.30;2.90;;;13.50;99.90;;;;;;5040823;28;20210;-77
2023/03/17 11:45:42;;;;;;;6.17;2.50;;;13.30;99.90;;;;;;5046325;28;20199;-77
2023/03/17 11:48:19;;;;;;;7.20;2.97;;;13.30;99.90;;;;;;5061639;28;20256;-76
2023/03/17 11:50:55;;;;;;;4.27;2.23;;;13.40;99.90;;;;;;5059127;28;20264;-75
2023/03/17 11:53:44;;;;;;;4.17;3.03;;;13.50;99.90;;;;;;5044597;28;20221;-77
2023/03/17 11:56:19;;;;;;;4.97;2.70;;;13.10;99.90;;;;;;5064375;28;20203;-77
2023/03/17 11:58:51;;;;;;;3.93;2.53;;;13.10;99.90;;;;;;5061450;28;20199;-77
2023/03/17 12:01:26;;;;;;;5.23;2.70;;;13.00;99.90;;;;;;5053067;28;20550;-77
2023/03/17 12:04:18;;;;;;;5.23;3.07;;;13.20;99.90;;;;;;5059646;28;20206;-77
2023/03/17 12:06:53;;;;;;;8.70;3.50;;;13.20;99.90;;;;;;5059598;28;20584;-75
2023/03/17 12:09:29;;;;;;;4.03;2.47;;;13.20;99.90;;;;;;5063047;28;20202;-77
2023/03/17 12:11:55;;;;;;;5.70;2.50;;;13.10;99.90;;;;;;5048243;28;20694;-77
2023/03/17 12:14:21;;;;;;;7.43;2.73;;;13.00;99.90;;;;;;5065413;28;20202;-78
2023/03/17 12:16:53;;;;;;;8.00;3.30;;;13.00;99.90;;;;;;5061086;28;20590;-77
2023/03/17 12:19:31;;;;;;;4.70;2.57;;;13.20;99.90;;;;;;5050666;28;20219;-78
2023/03/17 12:22:25;;;;;;;4.73;2.53;;;13.40;99.90;;;;;;5061828;28;20685;-78
2023/03/17 12:24:54;;;;;;;5.33;3.03;;;13.50;99.90;;;;;;5058765;28;20219;-78
2023/03/17 12:27:30;;;;;;;4.97;2.70;;;13.60;99.90;;;;;;5062826;28;20259;-76
2023/03/17 12:30:28;;;;;;;4.57;2.80;;;13.60;99.90;;;;;;5048088;28;20222;-77
2023/03/17 12:33:09;;;;;;;6.77;2.80;;;13.80;99.90;;;;;;5039694;28;20252;-78
2023/03/17 12:35:37;;;;;;;5.03;2.70;;;13.80;99.90;;;;;;5059548;28;20286;-77
2023/03/17 12:38:09;;;;;;;4.40;3.00;;;13.90;99.90;;;;;;5050212;28;20217;-77
2023/03/17 12:40:44;;;;;;;5.07;2.87;;;13.80;99.90;;;;;;5045998;28;20214;-77
2023/03/17 12:43:29;;;;;;;4.57;2.23;;;13.70;99.90;;;;;;5061685;28;20297;-77
2023/03/17 12:46:16;;;;;;;4.00;2.40;;;13.70;99.90;;;;;;5061128;28;20286;-77
2023/03/17 12:49:10;;;;;;;4.70;3.07;;;13.70;99.90;;;;;;5047884;28;20678;-78
2023/03/17 12:51:54;;;;;;;6.07;2.90;;;13.60;99.90;;;;;;5061154;28;20273;-78
2023/03/17 12:54:26;;;;;;;6.67;2.60;;;13.80;99.90;;;;;;5062498;28;20621;-77
2023/03/17 12:56:54;;;;;;;5.37;2.70;;;13.90;99.90;;;;;;5062074;28;20769;-74
2023/03/17 12:59:25;;;;;;;3.60;2.60;;;13.90;99.90;;;;;;5065856;28;20229;-77
2023/03/17 13:01:57;;;;;;;4.17;2.80;;;14.00;99.90;;;;;;5064381;28;20646;-77
2023/03/17 13:04:31;;;;;;;4.60;2.50;;;14.20;99.90;;;;;;5065998;28;20203;-76